sensor_id;sensor_type;location;lat;lon;timestamp;P1;durP1;ratioP1;P2;durP2;ratioP2
13560;SDS011;6852;51.686;5.314;2022-10-31T00:01:12;17.40;;;9.70;;
13560;SDS011;6852;51.686;5.314;2022-10-31T00:03:47;15.20;;;9.17;;
13560;SDS011;6852;51.686;5.314;2022-10-31T00:06:15;16.37;;;9.53;;
13560;SDS011;6852;51.686;5.314;2022-10-31T00:08:47;15.00;;;10.37;;
13560;SDS011;6852;51.686;5.314;2022-10-31T00:11:18;16.03;;;9.50;;
13560;SDS011;6852;51.686;5.314;2022-10-31T00:13:45;16.13;;;9.03;;
13560;SDS011;6852;51.686;5.314;2022-10-31T00:16:16;14.83;;;10.07;;
13560;SDS011;6852;51.686;5.314;2022-10-31T00:18:47;17.20;;;9.43;;
13560;SDS011;6852;51.686;5.314;2022-10-31T00:21:18;14.50;;;8.57;;
13560;SDS011;6852;51.686;5.314;2022-10-31T00:23:45;13.90;;;8.53;;
13560;SDS011;6852;51.686;5.314;2022-10-31T00:26:12;15.83;;;8.83;;
13560;SDS011;6852;51.686;5.314;2022-10-31T00:28:39;16.03;;;9.67;;
13560;SDS011;6852;51.686;5.314;2022-10-31T00:31:08;16.07;;;8.73;;
13560;SDS011;6852;51.686;5.314;2022-10-31T00:33:37;15.13;;;9.70;;
13560;SDS011;6852;51.686;5.314;2022-10-31T00:36:05;11.30;;;8.33;;
13560;SDS011;6852;51.686;5.314;2022-10-31T00:38:33;14.80;;;9.30;;
13560;SDS011;6852;51.686;5.314;2022-10-31T00:41:00;12.07;;;8.83;;
13560;SDS011;6852;51.686;5.314;2022-10-31T00:43:26;13.93;;;9.60;;
13560;SDS011;6852;51.686;5.314;2022-10-31T00:45:53;12.97;;;8.50;;
13560;SDS011;6852;51.686;5.314;2022-10-31T00:48:20;16.33;;;9.30;;
13560;SDS011;6852;51.686;5.314;2022-10-31T00:50:47;12.33;;;8.70;;
13560;SDS011;6852;51.686;5.314;2022-10-31T00:53:14;14.30;;;9.63;;
13560;SDS011;6852;51.686;5.314;2022-10-31T00:55:40;14.63;;;8.80;;
13560;SDS011;6852;51.686;5.314;2022-10-31T00:58:07;14.13;;;8.70;;
13560;SDS011;6852;51.686;5.314;2022-10-31T01:00:34;13.27;;;9.07;;
13560;SDS011;6852;51.686;5.314;2022-10-31T01:03:01;13.57;;;9.23;;
13560;SDS011;6852;51.686;5.314;2022-10-31T01:05:28;13.30;;;8.83;;
13560;SDS011;6852;51.686;5.314;2022-10-31T01:07:55;13.70;;;8.40;;
13560;SDS011;6852;51.686;5.314;2022-10-31T01:10:22;15.90;;;8.87;;
13560;SDS011;6852;51.686;5.314;2022-10-31T01:12:49;11.27;;;8.17;;
13560;SDS011;6852;51.686;5.314;2022-10-31T01:15:20;16.67;;;8.77;;
13560;SDS011;6852;51.686;5.314;2022-10-31T01:17:48;10.67;;;8.07;;
13560;SDS011;6852;51.686;5.314;2022-10-31T01:20:16;12.10;;;8.10;;
13560;SDS011;6852;51.686;5.314;2022-10-31T01:22:43;14.17;;;8.43;;
13560;SDS011;6852;51.686;5.314;2022-10-31T01:25:09;15.67;;;8.73;;
13560;SDS011;6852;51.686;5.314;2022-10-31T01:27:36;15.57;;;9.17;;
13560;SDS011;6852;51.686;5.314;2022-10-31T01:30:04;14.10;;;8.80;;
13560;SDS011;6852;51.686;5.314;2022-10-31T01:32:31;13.87;;;7.73;;
13560;SDS011;6852;51.686;5.314;2022-10-31T01:34:58;13.20;;;8.37;;
13560;SDS011;6852;51.686;5.314;2022-10-31T01:37:25;13.60;;;8.80;;
13560;SDS011;6852;51.686;5.314;2022-10-31T01:39:52;13.17;;;8.83;;
13560;SDS011;6852;51.686;5.314;2022-10-31T01:42:19;14.30;;;8.60;;
13560;SDS011;6852;51.686;5.314;2022-10-31T01:44:50;17.17;;;9.70;;
13560;SDS011;6852;51.686;5.314;2022-10-31T01:50:10;13.17;;;8.33;;
13560;SDS011;6852;51.686;5.314;2022-10-31T01:52:45;14.70;;;8.57;;
13560;SDS011;6852;51.686;5.314;2022-10-31T01:55:25;13.87;;;8.50;;
13560;SDS011;6852;51.686;5.314;2022-10-31T01:57:57;11.43;;;8.23;;
13560;SDS011;6852;51.686;5.314;2022-10-31T02:00:30;11.60;;;8.03;;
13560;SDS011;6852;51.686;5.314;2022-10-31T02:02:57;10.07;;;8.17;;
13560;SDS011;6852;51.686;5.314;2022-10-31T02:05:27;12.73;;;9.70;;
13560;SDS011;6852;51.686;5.314;2022-10-31T02:07:59;14.50;;;8.73;;
13560;SDS011;6852;51.686;5.314;2022-10-31T02:10:34;12.97;;;8.60;;
13560;SDS011;6852;51.686;5.314;2022-10-31T02:13:04;14.47;;;10.10;;
13560;SDS011;6852;51.686;5.314;2022-10-31T02:15:33;15.73;;;8.90;;
13560;SDS011;6852;51.686;5.314;2022-10-31T02:18:02;14.77;;;9.10;;
13560;SDS011;6852;51.686;5.314;2022-10-31T02:20:42;14.27;;;9.13;;
13560;SDS011;6852;51.686;5.314;2022-10-31T02:31:49;16.77;;;9.30;;
13560;SDS011;6852;51.686;5.314;2022-10-31T02:40:27;11.30;;;8.40;;
13560;SDS011;6852;51.686;5.314;2022-10-31T02:45:39;11.23;;;8.57;;
13560;SDS011;6852;51.686;5.314;2022-10-31T02:48:15;12.67;;;8.83;;
13560;SDS011;6852;51.686;5.314;2022-10-31T02:50:52;12.40;;;9.40;;
13560;SDS011;6852;51.686;5.314;2022-10-31T02:53:22;12.90;;;8.97;;
13560;SDS011;6852;51.686;5.314;2022-10-31T02:55:50;11.40;;;8.20;;
13560;SDS011;6852;51.686;5.314;2022-10-31T03:06:41;9.50;;;7.27;;
13560;SDS011;6852;51.686;5.314;2022-10-31T03:09:24;14.50;;;7.90;;
13560;SDS011;6852;51.686;5.314;2022-10-31T03:14:38;11.50;;;8.10;;
13560;SDS011;6852;51.686;5.314;2022-10-31T03:17:11;12.83;;;8.60;;
13560;SDS011;6852;51.686;5.314;2022-10-31T03:19:47;12.90;;;9.00;;
13560;SDS011;6852;51.686;5.314;2022-10-31T03:22:17;11.83;;;8.17;;
13560;SDS011;6852;51.686;5.314;2022-10-31T03:24:48;11.37;;;8.63;;
13560;SDS011;6852;51.686;5.314;2022-10-31T03:27:17;11.63;;;9.07;;
13560;SDS011;6852;51.686;5.314;2022-10-31T03:29:47;11.60;;;7.40;;
13560;SDS011;6852;51.686;5.314;2022-10-31T03:32:21;9.67;;;7.93;;
13560;SDS011;6852;51.686;5.314;2022-10-31T03:34:56;13.47;;;7.80;;
13560;SDS011;6852;51.686;5.314;2022-10-31T03:37:26;14.20;;;9.03;;
13560;SDS011;6852;51.686;5.314;2022-10-31T03:39:56;11.10;;;8.00;;
13560;SDS011;6852;51.686;5.314;2022-10-31T03:42:25;12.23;;;8.57;;
13560;SDS011;6852;51.686;5.314;2022-10-31T03:47:37;11.87;;;8.70;;
13560;SDS011;6852;51.686;5.314;2022-10-31T03:50:06;13.33;;;9.00;;
13560;SDS011;6852;51.686;5.314;2022-10-31T03:52:41;10.30;;;8.37;;
13560;SDS011;6852;51.686;5.314;2022-10-31T03:55:19;9.97;;;7.67;;
13560;SDS011;6852;51.686;5.314;2022-10-31T04:00:26;12.83;;;8.27;;
13560;SDS011;6852;51.686;5.314;2022-10-31T04:02:55;14.27;;;8.30;;
13560;SDS011;6852;51.686;5.314;2022-10-31T04:05:50;13.13;;;8.17;;
13560;SDS011;6852;51.686;5.314;2022-10-31T04:08:23;9.80;;;7.47;;
13560;SDS011;6852;51.686;5.314;2022-10-31T04:10:54;9.43;;;7.60;;
13560;SDS011;6852;51.686;5.314;2022-10-31T04:13:27;8.10;;;6.33;;
13560;SDS011;6852;51.686;5.314;2022-10-31T04:15:57;10.50;;;7.00;;
13560;SDS011;6852;51.686;5.314;2022-10-31T04:18:24;10.67;;;7.47;;
13560;SDS011;6852;51.686;5.314;2022-10-31T04:21:02;10.60;;;8.47;;
13560;SDS011;6852;51.686;5.314;2022-10-31T04:23:31;10.20;;;8.27;;
13560;SDS011;6852;51.686;5.314;2022-10-31T04:25:59;11.87;;;8.63;;
13560;SDS011;6852;51.686;5.314;2022-10-31T04:28:26;11.53;;;8.67;;
13560;SDS011;6852;51.686;5.314;2022-10-31T04:30:53;10.00;;;7.60;;
13560;SDS011;6852;51.686;5.314;2022-10-31T04:33:20;9.57;;;7.83;;
13560;SDS011;6852;51.686;5.314;2022-10-31T04:35:47;10.23;;;7.90;;
13560;SDS011;6852;51.686;5.314;2022-10-31T04:38:14;13.40;;;8.53;;
13560;SDS011;6852;51.686;5.314;2022-10-31T04:40:40;11.63;;;8.30;;
13560;SDS011;6852;51.686;5.314;2022-10-31T04:43:07;13.17;;;8.70;;
13560;SDS011;6852;51.686;5.314;2022-10-31T04:45:34;11.77;;;8.40;;
13560;SDS011;6852;51.686;5.314;2022-10-31T04:48:01;11.47;;;7.80;;
13560;SDS011;6852;51.686;5.314;2022-10-31T04:50:28;10.43;;;7.87;;
13560;SDS011;6852;51.686;5.314;2022-10-31T04:52:55;13.53;;;8.67;;
13560;SDS011;6852;51.686;5.314;2022-10-31T04:55:22;9.37;;;7.93;;
13560;SDS011;6852;51.686;5.314;2022-10-31T04:57:49;12.93;;;8.87;;
13560;SDS011;6852;51.686;5.314;2022-10-31T05:00:17;13.73;;;9.20;;
13560;SDS011;6852;51.686;5.314;2022-10-31T05:02:46;10.17;;;7.83;;
13560;SDS011;6852;51.686;5.314;2022-10-31T05:05:18;11.90;;;8.90;;
13560;SDS011;6852;51.686;5.314;2022-10-31T05:07:47;13.87;;;8.10;;
13560;SDS011;6852;51.686;5.314;2022-10-31T05:10:16;10.80;;;8.03;;
13560;SDS011;6852;51.686;5.314;2022-10-31T05:12:49;14.20;;;9.20;;
13560;SDS011;6852;51.686;5.314;2022-10-31T05:15:21;13.67;;;8.60;;
13560;SDS011;6852;51.686;5.314;2022-10-31T05:17:49;14.43;;;9.10;;
13560;SDS011;6852;51.686;5.314;2022-10-31T05:20:17;12.83;;;8.80;;
13560;SDS011;6852;51.686;5.314;2022-10-31T05:22:46;12.00;;;8.03;;
13560;SDS011;6852;51.686;5.314;2022-10-31T05:25:15;14.63;;;9.53;;
13560;SDS011;6852;51.686;5.314;2022-10-31T05:27:42;12.10;;;9.00;;
13560;SDS011;6852;51.686;5.314;2022-10-31T05:30:11;16.13;;;9.20;;
13560;SDS011;6852;51.686;5.314;2022-10-31T05:32:40;13.53;;;9.90;;
13560;SDS011;6852;51.686;5.314;2022-10-31T05:35:11;13.13;;;8.63;;
13560;SDS011;6852;51.686;5.314;2022-10-31T05:37:40;17.17;;;9.37;;
13560;SDS011;6852;51.686;5.314;2022-10-31T05:40:07;10.60;;;8.77;;
13560;SDS011;6852;51.686;5.314;2022-10-31T05:42:35;12.93;;;9.60;;
13560;SDS011;6852;51.686;5.314;2022-10-31T05:45:04;12.83;;;8.83;;
13560;SDS011;6852;51.686;5.314;2022-10-31T05:47:31;16.60;;;9.90;;
13560;SDS011;6852;51.686;5.314;2022-10-31T05:49:58;13.40;;;8.87;;
13560;SDS011;6852;51.686;5.314;2022-10-31T05:52:25;15.30;;;9.73;;
13560;SDS011;6852;51.686;5.314;2022-10-31T05:54:52;12.50;;;9.13;;
13560;SDS011;6852;51.686;5.314;2022-10-31T05:57:18;14.83;;;9.60;;
13560;SDS011;6852;51.686;5.314;2022-10-31T05:59:45;14.33;;;9.63;;
13560;SDS011;6852;51.686;5.314;2022-10-31T06:02:19;10.67;;;8.53;;
13560;SDS011;6852;51.686;5.314;2022-10-31T06:04:46;13.80;;;8.57;;
13560;SDS011;6852;51.686;5.314;2022-10-31T06:07:13;18.40;;;9.67;;
13560;SDS011;6852;51.686;5.314;2022-10-31T06:09:40;13.13;;;9.27;;
13560;SDS011;6852;51.686;5.314;2022-10-31T06:12:07;11.00;;;8.47;;
13560;SDS011;6852;51.686;5.314;2022-10-31T06:14:34;13.83;;;10.80;;
13560;SDS011;6852;51.686;5.314;2022-10-31T06:17:00;16.37;;;10.27;;
13560;SDS011;6852;51.686;5.314;2022-10-31T06:19:27;10.90;;;8.30;;
13560;SDS011;6852;51.686;5.314;2022-10-31T06:21:54;15.43;;;9.00;;
13560;SDS011;6852;51.686;5.314;2022-10-31T06:24:21;11.67;;;8.77;;
13560;SDS011;6852;51.686;5.314;2022-10-31T06:26:47;13.83;;;9.67;;
13560;SDS011;6852;51.686;5.314;2022-10-31T06:29:14;13.83;;;9.67;;
13560;SDS011;6852;51.686;5.314;2022-10-31T06:31:41;13.57;;;8.87;;
13560;SDS011;6852;51.686;5.314;2022-10-31T06:34:07;14.67;;;9.40;;
13560;SDS011;6852;51.686;5.314;2022-10-31T06:36:34;15.03;;;9.53;;
13560;SDS011;6852;51.686;5.314;2022-10-31T06:39:01;14.93;;;10.63;;
13560;SDS011;6852;51.686;5.314;2022-10-31T06:41:28;15.77;;;10.50;;
13560;SDS011;6852;51.686;5.314;2022-10-31T06:43:54;14.87;;;10.67;;
13560;SDS011;6852;51.686;5.314;2022-10-31T06:46:21;33.33;;;12.70;;
13560;SDS011;6852;51.686;5.314;2022-10-31T06:48:48;15.20;;;10.20;;
13560;SDS011;6852;51.686;5.314;2022-10-31T06:51:14;14.70;;;10.33;;
13560;SDS011;6852;51.686;5.314;2022-10-31T06:53:41;16.03;;;10.77;;
13560;SDS011;6852;51.686;5.314;2022-10-31T06:56:08;24.80;;;12.23;;
13560;SDS011;6852;51.686;5.314;2022-10-31T06:58:35;24.30;;;13.13;;
13560;SDS011;6852;51.686;5.314;2022-10-31T07:01:01;15.73;;;10.77;;
13560;SDS011;6852;51.686;5.314;2022-10-31T07:03:28;17.10;;;10.70;;
13560;SDS011;6852;51.686;5.314;2022-10-31T07:05:56;15.93;;;10.43;;
13560;SDS011;6852;51.686;5.314;2022-10-31T07:08:23;15.40;;;9.77;;
13560;SDS011;6852;51.686;5.314;2022-10-31T07:10:51;15.47;;;10.80;;
13560;SDS011;6852;51.686;5.314;2022-10-31T07:13:19;16.33;;;10.93;;
13560;SDS011;6852;51.686;5.314;2022-10-31T07:15:58;18.73;;;11.27;;
13560;SDS011;6852;51.686;5.314;2022-10-31T07:18:26;17.87;;;11.10;;
13560;SDS011;6852;51.686;5.314;2022-10-31T07:20:53;16.33;;;10.80;;
13560;SDS011;6852;51.686;5.314;2022-10-31T07:23:21;12.70;;;10.03;;
13560;SDS011;6852;51.686;5.314;2022-10-31T07:25:48;15.17;;;11.27;;
13560;SDS011;6852;51.686;5.314;2022-10-31T07:28:14;14.80;;;11.23;;
13560;SDS011;6852;51.686;5.314;2022-10-31T07:30:41;16.43;;;11.43;;
13560;SDS011;6852;51.686;5.314;2022-10-31T07:33:08;15.33;;;10.67;;
13560;SDS011;6852;51.686;5.314;2022-10-31T07:35:35;14.80;;;11.10;;
13560;SDS011;6852;51.686;5.314;2022-10-31T07:38:11;14.90;;;11.43;;
13560;SDS011;6852;51.686;5.314;2022-10-31T07:40:40;19.27;;;11.23;;
13560;SDS011;6852;51.686;5.314;2022-10-31T07:43:08;18.93;;;12.17;;
13560;SDS011;6852;51.686;5.314;2022-10-31T07:45:39;18.13;;;12.40;;
13560;SDS011;6852;51.686;5.314;2022-10-31T07:48:06;20.33;;;12.97;;
13560;SDS011;6852;51.686;5.314;2022-10-31T07:50:33;20.90;;;13.37;;
13560;SDS011;6852;51.686;5.314;2022-10-31T07:53:05;18.50;;;13.43;;
13560;SDS011;6852;51.686;5.314;2022-10-31T07:55:37;22.73;;;14.83;;
13560;SDS011;6852;51.686;5.314;2022-10-31T07:58:08;19.37;;;13.30;;
13560;SDS011;6852;51.686;5.314;2022-10-31T08:00:37;18.70;;;13.10;;
13560;SDS011;6852;51.686;5.314;2022-10-31T08:03:06;18.77;;;12.93;;
13560;SDS011;6852;51.686;5.314;2022-10-31T08:05:35;19.40;;;12.47;;
13560;SDS011;6852;51.686;5.314;2022-10-31T08:08:05;22.00;;;14.47;;
13560;SDS011;6852;51.686;5.314;2022-10-31T08:10:33;19.70;;;14.67;;
13560;SDS011;6852;51.686;5.314;2022-10-31T08:13:02;20.53;;;14.27;;
13560;SDS011;6852;51.686;5.314;2022-10-31T08:15:29;17.60;;;13.13;;
13560;SDS011;6852;51.686;5.314;2022-10-31T08:17:56;23.60;;;15.17;;
13560;SDS011;6852;51.686;5.314;2022-10-31T08:20:23;19.80;;;13.40;;
13560;SDS011;6852;51.686;5.314;2022-10-31T08:22:57;18.77;;;13.47;;
13560;SDS011;6852;51.686;5.314;2022-10-31T08:25:26;18.57;;;13.67;;
13560;SDS011;6852;51.686;5.314;2022-10-31T08:27:58;18.37;;;13.40;;
13560;SDS011;6852;51.686;5.314;2022-10-31T08:30:27;15.90;;;12.50;;
13560;SDS011;6852;51.686;5.314;2022-10-31T08:33:12;16.50;;;13.00;;
13560;SDS011;6852;51.686;5.314;2022-10-31T08:35:40;16.37;;;13.33;;
13560;SDS011;6852;51.686;5.314;2022-10-31T08:38:08;23.17;;;13.90;;
13560;SDS011;6852;51.686;5.314;2022-10-31T08:40:36;16.40;;;13.80;;
13560;SDS011;6852;51.686;5.314;2022-10-31T08:43:05;22.00;;;14.57;;
13560;SDS011;6852;51.686;5.314;2022-10-31T08:45:33;24.87;;;15.50;;
13560;SDS011;6852;51.686;5.314;2022-10-31T08:48:01;20.33;;;14.63;;
13560;SDS011;6852;51.686;5.314;2022-10-31T08:50:32;18.50;;;14.97;;
13560;SDS011;6852;51.686;5.314;2022-10-31T08:53:01;24.67;;;15.73;;
13560;SDS011;6852;51.686;5.314;2022-10-31T08:55:35;25.33;;;15.73;;
13560;SDS011;6852;51.686;5.314;2022-10-31T08:58:04;26.07;;;16.70;;
13560;SDS011;6852;51.686;5.314;2022-10-31T09:00:32;20.17;;;14.97;;
13560;SDS011;6852;51.686;5.314;2022-10-31T09:03:02;24.20;;;15.80;;
13560;SDS011;6852;51.686;5.314;2022-10-31T09:05:31;27.67;;;15.37;;
13560;SDS011;6852;51.686;5.314;2022-10-31T09:07:59;25.27;;;15.67;;
13560;SDS011;6852;51.686;5.314;2022-10-31T09:10:27;26.27;;;17.10;;
13560;SDS011;6852;51.686;5.314;2022-10-31T09:13:02;22.57;;;15.73;;
13560;SDS011;6852;51.686;5.314;2022-10-31T09:15:37;22.90;;;16.20;;
13560;SDS011;6852;51.686;5.314;2022-10-31T09:18:05;25.73;;;17.73;;
13560;SDS011;6852;51.686;5.314;2022-10-31T09:20:33;28.27;;;18.37;;
13560;SDS011;6852;51.686;5.314;2022-10-31T09:23:03;27.13;;;16.83;;
13560;SDS011;6852;51.686;5.314;2022-10-31T09:25:32;28.33;;;17.60;;
13560;SDS011;6852;51.686;5.314;2022-10-31T09:28:00;26.30;;;17.93;;
13560;SDS011;6852;51.686;5.314;2022-10-31T09:30:30;25.37;;;16.93;;
13560;SDS011;6852;51.686;5.314;2022-10-31T09:32:58;24.57;;;17.47;;
13560;SDS011;6852;51.686;5.314;2022-10-31T09:35:27;24.40;;;16.47;;
13560;SDS011;6852;51.686;5.314;2022-10-31T09:37:57;28.83;;;17.67;;
13560;SDS011;6852;51.686;5.314;2022-10-31T09:40:34;22.93;;;16.53;;
13560;SDS011;6852;51.686;5.314;2022-10-31T09:52:04;26.70;;;16.60;;
13560;SDS011;6852;51.686;5.314;2022-10-31T09:57:33;20.47;;;15.73;;
13560;SDS011;6852;51.686;5.314;2022-10-31T10:00:05;21.70;;;15.33;;
13560;SDS011;6852;51.686;5.314;2022-10-31T10:02:37;23.23;;;15.00;;
13560;SDS011;6852;51.686;5.314;2022-10-31T10:05:11;24.73;;;15.53;;
13560;SDS011;6852;51.686;5.314;2022-10-31T10:07:48;24.07;;;14.80;;
13560;SDS011;6852;51.686;5.314;2022-10-31T10:10:18;23.30;;;14.43;;
13560;SDS011;6852;51.686;5.314;2022-10-31T10:13:10;21.60;;;13.83;;
13560;SDS011;6852;51.686;5.314;2022-10-31T10:16:11;23.07;;;13.90;;
13560;SDS011;6852;51.686;5.314;2022-10-31T10:21:51;23.53;;;15.07;;
13560;SDS011;6852;51.686;5.314;2022-10-31T10:33:44;25.77;;;15.23;;
13560;SDS011;6852;51.686;5.314;2022-10-31T10:36:28;20.90;;;15.17;;
13560;SDS011;6852;51.686;5.314;2022-10-31T10:39:14;24.50;;;15.37;;
13560;SDS011;6852;51.686;5.314;2022-10-31T10:41:47;30.27;;;17.60;;
13560;SDS011;6852;51.686;5.314;2022-10-31T10:44:43;24.23;;;17.40;;
13560;SDS011;6852;51.686;5.314;2022-10-31T10:47:35;32.07;;;18.70;;
13560;SDS011;6852;51.686;5.314;2022-10-31T10:50:17;29.30;;;18.33;;
13560;SDS011;6852;51.686;5.314;2022-10-31T10:52:56;24.60;;;18.30;;
13560;SDS011;6852;51.686;5.314;2022-10-31T10:55:36;31.60;;;19.03;;
13560;SDS011;6852;51.686;5.314;2022-10-31T10:58:13;29.33;;;19.10;;
13560;SDS011;6852;51.686;5.314;2022-10-31T11:00:41;28.87;;;18.20;;
13560;SDS011;6852;51.686;5.314;2022-10-31T11:03:16;28.47;;;18.87;;
13560;SDS011;6852;51.686;5.314;2022-10-31T11:08:53;28.57;;;18.53;;
13560;SDS011;6852;51.686;5.314;2022-10-31T11:13:54;31.40;;;19.77;;
13560;SDS011;6852;51.686;5.314;2022-10-31T11:19:04;33.30;;;20.57;;
13560;SDS011;6852;51.686;5.314;2022-10-31T11:21:53;27.87;;;19.60;;
13560;SDS011;6852;51.686;5.314;2022-10-31T11:24:24;32.43;;;19.23;;
13560;SDS011;6852;51.686;5.314;2022-10-31T11:27:03;29.80;;;20.40;;
13560;SDS011;6852;51.686;5.314;2022-10-31T11:29:45;31.20;;;20.73;;
13560;SDS011;6852;51.686;5.314;2022-10-31T11:32:20;29.70;;;20.07;;
13560;SDS011;6852;51.686;5.314;2022-10-31T11:34:50;29.23;;;19.77;;
13560;SDS011;6852;51.686;5.314;2022-10-31T11:37:23;28.83;;;20.30;;
13560;SDS011;6852;51.686;5.314;2022-10-31T11:39:57;35.13;;;22.10;;
13560;SDS011;6852;51.686;5.314;2022-10-31T11:42:27;33.37;;;22.20;;
13560;SDS011;6852;51.686;5.314;2022-10-31T11:44:56;39.43;;;23.37;;
13560;SDS011;6852;51.686;5.314;2022-10-31T11:47:25;34.77;;;22.37;;
13560;SDS011;6852;51.686;5.314;2022-10-31T11:49:54;37.97;;;21.73;;
13560;SDS011;6852;51.686;5.314;2022-10-31T11:52:25;36.13;;;21.97;;
13560;SDS011;6852;51.686;5.314;2022-10-31T11:54:55;36.53;;;21.53;;
13560;SDS011;6852;51.686;5.314;2022-10-31T11:57:29;36.17;;;21.60;;
13560;SDS011;6852;51.686;5.314;2022-10-31T11:59:57;36.77;;;22.60;;
13560;SDS011;6852;51.686;5.314;2022-10-31T12:02:26;35.53;;;21.87;;
13560;SDS011;6852;51.686;5.314;2022-10-31T12:05:26;32.63;;;20.97;;
13560;SDS011;6852;51.686;5.314;2022-10-31T12:07:59;38.90;;;21.23;;
13560;SDS011;6852;51.686;5.314;2022-10-31T12:10:36;32.83;;;21.10;;
13560;SDS011;6852;51.686;5.314;2022-10-31T12:16:02;32.83;;;20.90;;
13560;SDS011;6852;51.686;5.314;2022-10-31T12:21:43;31.23;;;20.80;;
13560;SDS011;6852;51.686;5.314;2022-10-31T12:29:43;29.97;;;20.73;;
13560;SDS011;6852;51.686;5.314;2022-10-31T12:38:32;33.73;;;20.97;;
13560;SDS011;6852;51.686;5.314;2022-10-31T12:44:09;34.43;;;21.67;;
13560;SDS011;6852;51.686;5.314;2022-10-31T12:58:17;31.37;;;21.13;;
13560;SDS011;6852;51.686;5.314;2022-10-31T13:00:57;28.63;;;19.33;;
13560;SDS011;6852;51.686;5.314;2022-10-31T13:03:30;31.87;;;18.80;;
13560;SDS011;6852;51.686;5.314;2022-10-31T13:06:09;30.40;;;18.67;;
13560;SDS011;6852;51.686;5.314;2022-10-31T13:08:53;30.17;;;19.33;;
13560;SDS011;6852;51.686;5.314;2022-10-31T13:11:23;30.03;;;17.70;;
13560;SDS011;6852;51.686;5.314;2022-10-31T13:13:56;27.00;;;18.60;;
13560;SDS011;6852;51.686;5.314;2022-10-31T13:16:43;27.40;;;18.70;;
13560;SDS011;6852;51.686;5.314;2022-10-31T13:19:16;25.23;;;17.40;;
13560;SDS011;6852;51.686;5.314;2022-10-31T13:22:06;31.07;;;18.60;;
13560;SDS011;6852;51.686;5.314;2022-10-31T13:24:38;26.27;;;16.17;;
13560;SDS011;6852;51.686;5.314;2022-10-31T13:27:22;30.50;;;17.70;;
13560;SDS011;6852;51.686;5.314;2022-10-31T13:29:55;32.03;;;18.07;;
13560;SDS011;6852;51.686;5.314;2022-10-31T13:32:45;27.47;;;17.60;;
13560;SDS011;6852;51.686;5.314;2022-10-31T13:35:33;28.93;;;17.97;;
13560;SDS011;6852;51.686;5.314;2022-10-31T13:49:21;24.87;;;17.27;;
13560;SDS011;6852;51.686;5.314;2022-10-31T13:54:39;26.37;;;15.27;;
13560;SDS011;6852;51.686;5.314;2022-10-31T13:57:29;23.47;;;15.10;;
13560;SDS011;6852;51.686;5.314;2022-10-31T14:02:46;22.87;;;15.33;;
13560;SDS011;6852;51.686;5.314;2022-10-31T14:05:21;24.93;;;16.63;;
13560;SDS011;6852;51.686;5.314;2022-10-31T14:07:58;21.30;;;14.00;;
13560;SDS011;6852;51.686;5.314;2022-10-31T14:10:38;21.33;;;14.33;;
13560;SDS011;6852;51.686;5.314;2022-10-31T14:16:23;21.33;;;12.60;;
13560;SDS011;6852;51.686;5.314;2022-10-31T14:18:59;30.17;;;15.60;;
13560;SDS011;6852;51.686;5.314;2022-10-31T14:21:29;20.27;;;13.17;;
13560;SDS011;6852;51.686;5.314;2022-10-31T14:24:02;22.93;;;13.40;;
13560;SDS011;6852;51.686;5.314;2022-10-31T14:29:24;22.47;;;12.30;;
13560;SDS011;6852;51.686;5.314;2022-10-31T14:32:03;23.50;;;12.17;;
13560;SDS011;6852;51.686;5.314;2022-10-31T14:34:42;17.03;;;12.37;;
13560;SDS011;6852;51.686;5.314;2022-10-31T14:37:35;18.77;;;11.57;;
13560;SDS011;6852;51.686;5.314;2022-10-31T14:40:24;18.50;;;11.47;;
13560;SDS011;6852;51.686;5.314;2022-10-31T14:43:04;22.63;;;11.10;;
13560;SDS011;6852;51.686;5.314;2022-10-31T14:46:00;16.57;;;10.90;;
13560;SDS011;6852;51.686;5.314;2022-10-31T14:48:36;15.20;;;10.40;;
13560;SDS011;6852;51.686;5.314;2022-10-31T14:51:27;19.33;;;11.23;;
13560;SDS011;6852;51.686;5.314;2022-10-31T14:54:01;17.20;;;11.13;;
13560;SDS011;6852;51.686;5.314;2022-10-31T14:56:32;22.13;;;12.13;;
13560;SDS011;6852;51.686;5.314;2022-10-31T14:59:04;18.90;;;11.20;;
13560;SDS011;6852;51.686;5.314;2022-10-31T15:01:35;18.23;;;10.40;;
13560;SDS011;6852;51.686;5.314;2022-10-31T15:04:09;16.77;;;10.70;;
13560;SDS011;6852;51.686;5.314;2022-10-31T15:06:51;15.00;;;10.57;;
13560;SDS011;6852;51.686;5.314;2022-10-31T15:09:25;20.37;;;10.37;;
13560;SDS011;6852;51.686;5.314;2022-10-31T15:11:58;15.83;;;11.20;;
13560;SDS011;6852;51.686;5.314;2022-10-31T15:14:44;17.43;;;9.90;;
13560;SDS011;6852;51.686;5.314;2022-10-31T15:17:11;17.20;;;11.03;;
13560;SDS011;6852;51.686;5.314;2022-10-31T15:19:39;22.50;;;10.73;;
13560;SDS011;6852;51.686;5.314;2022-10-31T15:22:07;18.97;;;11.43;;
13560;SDS011;6852;51.686;5.314;2022-10-31T15:24:40;18.13;;;10.77;;
13560;SDS011;6852;51.686;5.314;2022-10-31T15:27:17;17.93;;;10.53;;
13560;SDS011;6852;51.686;5.314;2022-10-31T15:29:48;16.63;;;10.20;;
13560;SDS011;6852;51.686;5.314;2022-10-31T15:32:23;22.40;;;13.70;;
13560;SDS011;6852;51.686;5.314;2022-10-31T15:34:55;21.13;;;11.83;;
13560;SDS011;6852;51.686;5.314;2022-10-31T15:37:24;16.63;;;10.90;;
13560;SDS011;6852;51.686;5.314;2022-10-31T15:39:52;20.60;;;11.20;;
13560;SDS011;6852;51.686;5.314;2022-10-31T15:44:47;19.83;;;11.10;;
13560;SDS011;6852;51.686;5.314;2022-10-31T15:47:18;18.67;;;11.53;;
13560;SDS011;6852;51.686;5.314;2022-10-31T15:49:49;15.97;;;10.47;;
13560;SDS011;6852;51.686;5.314;2022-10-31T15:55:05;22.97;;;11.03;;
13560;SDS011;6852;51.686;5.314;2022-10-31T15:57:39;18.17;;;10.83;;
13560;SDS011;6852;51.686;5.314;2022-10-31T16:00:28;22.53;;;11.50;;
13560;SDS011;6852;51.686;5.314;2022-10-31T16:05:46;13.87;;;9.90;;
13560;SDS011;6852;51.686;5.314;2022-10-31T16:08:22;20.17;;;11.07;;
13560;SDS011;6852;51.686;5.314;2022-10-31T16:10:55;17.57;;;11.67;;
13560;SDS011;6852;51.686;5.314;2022-10-31T16:13:26;16.57;;;10.80;;
13560;SDS011;6852;51.686;5.314;2022-10-31T16:16:01;20.23;;;10.57;;
13560;SDS011;6852;51.686;5.314;2022-10-31T16:19:00;17.77;;;10.47;;
13560;SDS011;6852;51.686;5.314;2022-10-31T16:21:33;21.63;;;12.00;;
13560;SDS011;6852;51.686;5.314;2022-10-31T16:24:04;14.57;;;11.00;;
13560;SDS011;6852;51.686;5.314;2022-10-31T16:26:53;18.33;;;12.43;;
13560;SDS011;6852;51.686;5.314;2022-10-31T16:29:27;17.10;;;10.23;;
13560;SDS011;6852;51.686;5.314;2022-10-31T16:32:26;20.97;;;11.50;;
13560;SDS011;6852;51.686;5.314;2022-10-31T16:37:37;20.33;;;11.57;;
13560;SDS011;6852;51.686;5.314;2022-10-31T16:40:09;19.30;;;11.00;;
13560;SDS011;6852;51.686;5.314;2022-10-31T16:42:36;20.67;;;11.03;;
13560;SDS011;6852;51.686;5.314;2022-10-31T16:45:05;20.33;;;11.53;;
13560;SDS011;6852;51.686;5.314;2022-10-31T16:47:33;18.23;;;11.47;;
13560;SDS011;6852;51.686;5.314;2022-10-31T16:49:59;23.70;;;12.70;;
13560;SDS011;6852;51.686;5.314;2022-10-31T16:52:27;22.97;;;11.70;;
13560;SDS011;6852;51.686;5.314;2022-10-31T16:55:10;16.87;;;11.67;;
13560;SDS011;6852;51.686;5.314;2022-10-31T16:57:38;17.57;;;11.70;;
13560;SDS011;6852;51.686;5.314;2022-10-31T17:00:07;21.23;;;13.00;;
13560;SDS011;6852;51.686;5.314;2022-10-31T17:02:38;19.00;;;11.23;;
13560;SDS011;6852;51.686;5.314;2022-10-31T17:05:05;24.70;;;13.43;;
13560;SDS011;6852;51.686;5.314;2022-10-31T17:07:34;21.60;;;12.47;;
13560;SDS011;6852;51.686;5.314;2022-10-31T17:10:01;21.03;;;12.73;;
13560;SDS011;6852;51.686;5.314;2022-10-31T17:12:28;26.73;;;12.33;;
13560;SDS011;6852;51.686;5.314;2022-10-31T17:14:55;22.07;;;12.80;;
13560;SDS011;6852;51.686;5.314;2022-10-31T17:17:22;27.77;;;12.93;;
13560;SDS011;6852;51.686;5.314;2022-10-31T17:19:48;21.53;;;13.27;;
13560;SDS011;6852;51.686;5.314;2022-10-31T17:22:16;26.37;;;14.13;;